createdAt,value
2019-06-18T00:00:27.377Z,4.80
2019-06-18T00:01:32.899Z,6.90
2019-06-18T00:02:40.229Z,4.80
2019-06-18T00:03:43.941Z,5.20
2019-06-18T00:04:51.064Z,6.00
2019-06-18T00:05:54.971Z,5.00
2019-06-18T00:07:01.214Z,5.20
2019-06-18T00:08:06.005Z,7.00
2019-06-18T00:09:11.509Z,4.80
2019-06-18T00:10:17.021Z,5.00
2019-06-18T00:11:22.538Z,5.90
2019-06-18T00:12:28.057Z,5.20
2019-06-18T00:13:33.595Z,5.90
2019-06-18T00:14:40.334Z,4.50
2019-06-18T00:15:48.996Z,4.80
2019-06-18T00:16:51.263Z,5.70
2019-06-18T00:17:55.640Z,5.10
2019-06-18T00:19:01.871Z,5.80
2019-06-18T00:20:06.685Z,5.20
2019-06-18T00:21:12.187Z,6.20
2019-06-18T00:22:17.698Z,5.80
2019-06-18T00:23:23.214Z,6.30
2019-06-18T00:24:30.877Z,6.10
2019-06-18T00:25:34.252Z,5.50
2019-06-18T00:26:41.769Z,5.40
2019-06-18T00:27:45.278Z,6.00
2019-06-18T00:28:50.880Z,4.70
2019-06-18T00:29:56.306Z,7.70
2019-06-18T00:31:01.842Z,6.50
2019-06-18T00:32:07.338Z,7.70
2019-06-18T00:33:12.856Z,9.20
2019-06-18T00:34:21.162Z,9.80
2019-06-18T00:35:23.885Z,8.90
2019-06-18T00:36:31.082Z,5.90
2019-06-18T00:37:34.963Z,6.40
2019-06-18T00:38:41.373Z,5.20
2019-06-18T00:39:45.949Z,6.00
2019-06-18T00:40:51.474Z,6.50
2019-06-18T00:41:58.894Z,5.70
2019-06-18T00:43:02.504Z,5.60
2019-06-18T00:44:08.145Z,5.80
2019-06-18T00:45:13.529Z,6.20
2019-06-18T00:46:19.051Z,6.40
2019-06-18T00:47:24.566Z,6.30
2019-06-18T00:48:30.083Z,7.70
2019-06-18T00:49:37.421Z,5.60
2019-06-18T00:50:41.103Z,5.60
2019-06-18T00:51:48.078Z,6.20
2019-06-18T00:52:52.130Z,6.30
2019-06-18T00:53:57.655Z,7.50
2019-06-18T00:55:03.170Z,6.00
2019-06-18T00:56:08.691Z,6.70
2019-06-18T00:57:14.198Z,8.10
2019-06-18T00:58:19.713Z,8.50
2019-06-18T00:59:26.910Z,7.20
2019-06-18T01:00:30.758Z,7.60
2019-06-18T01:01:38.410Z,7.70
2019-06-18T01:02:41.776Z,8.50
2019-06-18T01:03:47.288Z,9.40
2019-06-18T01:04:52.821Z,6.70
2019-06-18T01:05:58.325Z,5.50
2019-06-18T01:07:03.837Z,5.70
2019-06-18T01:08:09.371Z,9.30
2019-06-18T01:09:16.654Z,10.20
2019-06-18T01:10:20.389Z,8.80
2019-06-18T01:11:27.272Z,7.00
2019-06-18T01:12:31.426Z,9.00
2019-06-18T01:13:37.434Z,9.70
2019-06-18T01:14:42.448Z,9.20
2019-06-18T01:15:47.960Z,9.20
2019-06-18T01:16:53.528Z,9.80
2019-06-18T01:17:58.990Z,10.50
2019-06-18T01:19:07.064Z,8.90
2019-06-18T01:20:10.020Z,11.60
2019-06-18T01:21:17.425Z,10.10
2019-06-18T01:22:21.059Z,11.30
2019-06-18T01:23:26.575Z,12.70
2019-06-18T01:24:32.347Z,10.30
2019-06-18T01:25:37.604Z,10.40
2019-06-18T01:26:43.508Z,9.40
2019-06-18T01:27:48.638Z,7.80
2019-06-18T01:28:54.159Z,9.00
2019-06-18T01:29:59.665Z,10.40
2019-06-18T01:31:05.175Z,6.90
2019-06-18T01:32:12.529Z,5.30
2019-06-18T01:33:16.214Z,5.90
2019-06-18T01:34:22.918Z,8.80
2019-06-18T01:35:27.245Z,8.50
2019-06-18T01:36:33.119Z,8.70
2019-06-18T01:37:38.285Z,8.20
2019-06-18T01:38:43.783Z,8.70
2019-06-18T01:39:49.319Z,11.40
2019-06-18T01:40:54.816Z,9.90
2019-06-18T01:42:00.341Z,8.50
2019-06-18T01:43:05.862Z,6.20
2019-06-18T01:44:13.323Z,8.60
2019-06-18T01:45:16.877Z,8.70
2019-06-18T01:46:32.029Z,8.80
2019-06-18T01:47:27.921Z,10.00
2019-06-18T01:48:33.442Z,10.70
2019-06-18T01:49:38.945Z,10.80
2019-06-18T01:50:44.452Z,11.60
2019-06-18T01:51:52.377Z,10.90
2019-06-18T01:52:55.484Z,11.50
2019-06-18T01:54:02.539Z,11.30
2019-06-18T01:55:06.526Z,8.90
2019-06-18T01:56:13.131Z,13.30
2019-06-18T01:57:17.547Z,9.60
2019-06-18T01:58:23.075Z,9.60
2019-06-18T01:59:28.578Z,11.60
2019-06-18T02:00:34.098Z,15.80
2019-06-18T02:01:39.606Z,9.20
2019-06-18T02:02:45.159Z,11.60
2019-06-18T02:03:52.843Z,9.60
2019-06-18T02:04:56.148Z,8.20
2019-06-18T02:06:03.046Z,9.30
2019-06-18T02:07:07.183Z,9.20
2019-06-18T02:08:12.703Z,8.60
2019-06-18T02:09:18.229Z,9.10
2019-06-18T02:10:23.949Z,7.50
2019-06-18T02:11:29.239Z,9.70
2019-06-18T02:12:34.777Z,8.50
2019-06-18T02:13:42.411Z,9.80
2019-06-18T02:14:45.799Z,10.00
2019-06-18T02:15:52.978Z,10.60
2019-06-18T02:16:57.577Z,9.00
2019-06-18T02:18:03.719Z,11.40
2019-06-18T02:19:07.852Z,9.80
2019-06-18T02:20:13.370Z,11.40
2019-06-18T02:21:18.890Z,9.00
2019-06-18T02:22:24.414Z,11.20
2019-06-18T02:23:32.864Z,11.10
2019-06-18T02:24:35.421Z,12.30
2019-06-18T02:25:42.999Z,9.30
2019-06-18T02:26:46.457Z,9.80
2019-06-18T02:27:52.917Z,10.60
2019-06-18T02:28:57.489Z,12.10
2019-06-18T02:30:06.103Z,14.10
2019-06-18T02:31:08.513Z,9.80
2019-06-18T02:32:14.635Z,9.40
2019-06-18T02:33:19.555Z,10.50
2019-06-18T02:34:25.089Z,14.60
2019-06-18T02:35:33.162Z,9.30
2019-06-18T02:36:36.089Z,11.50
2019-06-18T02:37:43.122Z,11.30
2019-06-18T02:38:47.128Z,10.20
2019-06-18T02:39:53.082Z,10.40
2019-06-18T02:40:58.156Z,10.10
2019-06-18T02:42:03.670Z,7.30
2019-06-18T02:43:09.188Z,10.50
2019-06-18T02:44:14.708Z,11.80
2019-06-18T02:45:21.053Z,11.50
2019-06-18T02:46:25.740Z,9.80
2019-06-18T02:47:32.439Z,15.30
2019-06-18T02:48:36.763Z,13.50
2019-06-18T02:49:42.798Z,14.10
2019-06-18T02:50:47.787Z,9.50
2019-06-18T02:51:53.320Z,15.00
2019-06-18T02:52:58.835Z,9.90
2019-06-18T02:54:04.330Z,10.00
2019-06-18T02:55:09.851Z,11.20
2019-06-18T02:56:15.372Z,10.90
2019-06-18T02:57:22.971Z,13.20
2019-06-18T02:58:26.391Z,19.30
2019-06-18T02:59:33.521Z,10.20
2019-06-18T03:00:37.425Z,9.40
2019-06-18T03:01:43.419Z,10.70
2019-06-18T03:02:48.449Z,10.90
2019-06-18T03:03:53.970Z,11.00
2019-06-18T03:04:59.482Z,9.30
2019-06-18T03:06:05.003Z,9.00
2019-06-18T03:07:13.224Z,12.20
2019-06-18T03:08:16.027Z,10.80
2019-06-18T03:09:22.313Z,8.00
2019-06-18T03:10:27.057Z,13.80
2019-06-18T03:11:33.049Z,10.40
2019-06-18T03:12:38.093Z,9.80
2019-06-18T03:13:43.613Z,8.00
2019-06-18T03:14:49.121Z,8.90
2019-06-18T03:15:54.638Z,9.40
2019-06-18T03:17:02.832Z,7.40
2019-06-18T03:18:05.664Z,12.40
2019-06-18T03:19:13.087Z,12.10
2019-06-18T03:20:16.716Z,10.90
2019-06-18T03:21:22.648Z,13.40
2019-06-18T03:22:27.825Z,11.50
2019-06-18T03:23:33.242Z,12.80
2019-06-18T03:24:38.765Z,13.00
2019-06-18T03:25:44.271Z,9.20
2019-06-18T03:26:49.780Z,11.00
2019-06-18T03:27:55.312Z,8.30
2019-06-18T03:29:02.597Z,11.60
2019-06-18T03:30:06.332Z,12.50
2019-06-18T03:31:15.444Z,10.70
2019-06-18T03:32:17.363Z,12.10
2019-06-18T03:33:24.717Z,13.00
2019-06-18T03:34:28.396Z,13.80
2019-06-18T03:35:33.919Z,13.80
2019-06-18T03:36:39.431Z,13.30
2019-06-18T03:37:44.936Z,11.60
2019-06-18T03:38:52.295Z,11.70
2019-06-18T03:39:55.989Z,12.00
2019-06-18T03:41:02.843Z,11.70
2019-06-18T03:42:07.001Z,11.00
2019-06-18T03:43:12.945Z,14.20
2019-06-18T03:44:18.032Z,10.90
2019-06-18T03:45:23.679Z,13.40
2019-06-18T03:46:29.064Z,13.70
2019-06-18T03:47:45.824Z,13.10
2019-06-18T03:48:42.638Z,12.90
2019-06-18T03:49:45.630Z,14.50
2019-06-18T03:50:53.355Z,9.80
2019-06-18T03:51:56.629Z,8.70
2019-06-18T03:53:03.592Z,14.30
2019-06-18T03:54:07.666Z,13.80
2019-06-18T03:55:13.774Z,14.20
2019-06-18T03:56:18.711Z,9.80
2019-06-18T03:57:24.223Z,12.80
2019-06-18T03:58:29.726Z,15.60
2019-06-18T03:59:35.232Z,13.20
2019-06-18T04:00:42.587Z,12.70
2019-06-18T04:01:46.273Z,8.40
2019-06-18T04:02:52.773Z,9.00
2019-06-18T04:03:57.308Z,8.50
2019-06-18T04:05:03.839Z,10.50
2019-06-18T04:06:08.399Z,9.80
2019-06-18T04:07:13.855Z,14.10
2019-06-18T04:08:19.356Z,12.60
2019-06-18T04:09:24.870Z,8.90
2019-06-18T04:10:30.391Z,15.00
2019-06-18T04:11:35.907Z,11.40
2019-06-18T04:12:43.080Z,12.60
2019-06-18T04:13:46.940Z,12.10
2019-06-18T04:14:53.018Z,10.70
2019-06-18T04:15:57.970Z,12.20
2019-06-18T04:17:03.526Z,13.70
2019-06-18T04:18:09.019Z,10.40
2019-06-18T04:19:14.533Z,9.10
2019-06-18T04:20:20.034Z,8.90
2019-06-18T04:21:25.539Z,12.10
2019-06-18T04:22:32.482Z,10.40
2019-06-18T04:23:36.566Z,10.40
2019-06-18T04:24:42.934Z,10.00
2019-06-18T04:25:47.596Z,10.90
2019-06-18T04:26:53.133Z,10.00
2019-06-18T04:27:58.628Z,9.70
2019-06-18T04:29:04.141Z,9.90
2019-06-18T04:30:09.666Z,6.60
2019-06-18T04:31:15.172Z,8.40
2019-06-18T04:32:23.358Z,9.00
2019-06-18T04:33:26.199Z,7.10
2019-06-18T04:34:32.941Z,7.70
2019-06-18T04:35:37.231Z,8.20
2019-06-18T04:36:42.743Z,6.60
2019-06-18T04:37:48.260Z,6.60
2019-06-18T04:38:53.784Z,6.10
2019-06-18T04:39:59.294Z,6.70
2019-06-18T04:41:04.809Z,7.70
2019-06-18T04:42:12.434Z,5.90
2019-06-18T04:43:15.839Z,6.80
2019-06-18T04:44:22.725Z,7.30
2019-06-18T04:45:26.887Z,5.80
2019-06-18T04:46:32.690Z,5.80
2019-06-18T04:47:37.901Z,7.90
2019-06-18T04:48:43.417Z,6.10
2019-06-18T04:49:48.925Z,7.70
2019-06-18T04:50:54.442Z,6.00
2019-06-18T04:51:59.966Z,7.00
2019-06-18T04:53:06.454Z,5.80
2019-06-18T04:54:13.341Z,8.20
2019-06-18T04:55:16.502Z,6.80
2019-06-18T04:56:22.408Z,5.90
2019-06-18T04:57:27.544Z,8.30
2019-06-18T04:58:33.572Z,6.50
2019-06-18T04:59:38.562Z,7.60
2019-06-18T05:00:44.085Z,7.20
2019-06-18T05:01:49.588Z,6.70
2019-06-18T05:02:57.379Z,6.30
2019-06-18T05:04:03.324Z,6.60
2019-06-18T05:05:06.146Z,6.00
2019-06-18T05:06:13.915Z,8.00
2019-06-18T05:07:17.169Z,6.10
2019-06-18T05:08:22.837Z,6.00
2019-06-18T05:09:28.198Z,6.40
2019-06-18T05:10:33.714Z,7.70
2019-06-18T05:11:39.235Z,6.30
2019-06-18T05:12:44.755Z,8.30
2019-06-18T05:13:52.870Z,6.20
2019-06-18T05:14:55.766Z,6.50
2019-06-18T05:16:02.652Z,5.90
2019-06-18T05:17:06.805Z,6.50
2019-06-18T05:18:12.870Z,6.40
2019-06-18T05:19:17.854Z,5.80
2019-06-18T05:20:23.759Z,6.70
2019-06-18T05:21:28.882Z,6.00
2019-06-18T05:22:34.384Z,6.60
2019-06-18T05:23:39.887Z,6.20
2019-06-18T05:24:45.413Z,6.10
2019-06-18T05:25:52.839Z,6.10
2019-06-18T05:26:56.437Z,6.40
2019-06-18T05:28:03.354Z,6.20
2019-06-18T05:29:07.501Z,6.00
2019-06-18T05:30:13.146Z,6.30
2019-06-18T05:31:18.507Z,5.70
2019-06-18T05:32:24.032Z,5.80
2019-06-18T05:33:32.133Z,6.20
2019-06-18T05:34:35.051Z,6.30
2019-06-18T05:35:42.802Z,5.50
2019-06-18T05:36:46.085Z,6.20
2019-06-18T05:37:52.841Z,5.70
2019-06-18T05:38:57.115Z,5.80
2019-06-18T05:40:03.945Z,5.80
2019-06-18T05:41:08.158Z,5.90
2019-06-18T05:42:13.658Z,5.70
2019-06-18T05:43:19.176Z,6.10
2019-06-18T05:44:24.689Z,5.90
2019-06-18T05:45:32.929Z,5.40
2019-06-18T05:46:35.785Z,6.80
2019-06-18T05:47:42.635Z,5.30
2019-06-18T05:48:53.745Z,5.50
2019-06-18T05:49:53.119Z,5.80
2019-06-18T05:50:57.799Z,5.70
2019-06-18T05:52:04.216Z,6.00
2019-06-18T05:53:08.836Z,5.50
2019-06-18T05:54:14.338Z,5.80
2019-06-18T05:55:22.312Z,5.90
2019-06-18T05:56:25.384Z,5.80
2019-06-18T05:57:32.854Z,5.70
2019-06-18T05:58:36.399Z,6.70
2019-06-18T05:59:42.463Z,6.20
2019-06-18T06:00:47.430Z,7.70
2019-06-18T06:01:52.957Z,5.10
2019-06-18T06:02:58.467Z,5.70
2019-06-18T06:04:03.979Z,5.40
2019-06-18T06:05:12.053Z,5.40
2019-06-18T06:06:15.013Z,5.00
2019-06-18T06:07:22.667Z,4.80
2019-06-18T06:08:26.046Z,4.80
2019-06-18T06:09:32.857Z,4.90
2019-06-18T06:10:37.085Z,4.80
2019-06-18T06:11:43.516Z,5.00
2019-06-18T06:12:48.100Z,6.10
2019-06-18T06:13:53.636Z,4.90
2019-06-18T06:14:59.147Z,5.10
2019-06-18T06:16:04.662Z,5.30
2019-06-18T06:17:13.383Z,6.00
2019-06-18T06:18:15.694Z,4.70
2019-06-18T06:19:22.434Z,4.90
2019-06-18T06:20:26.719Z,5.00
2019-06-18T06:21:33.665Z,4.80
2019-06-18T06:22:37.762Z,4.70
2019-06-18T06:23:43.678Z,4.80
2019-06-18T06:24:49.683Z,4.90
2019-06-18T06:25:54.297Z,4.80
2019-06-18T06:27:02.555Z,5.50
2019-06-18T06:28:05.349Z,4.40
2019-06-18T06:29:10.867Z,5.20
2019-06-18T06:30:16.396Z,7.00
2019-06-18T06:31:23.354Z,5.00
2019-06-18T06:32:27.423Z,4.70
2019-06-18T06:33:33.473Z,4.40
2019-06-18T06:34:38.430Z,4.20
2019-06-18T06:35:43.986Z,5.00
2019-06-18T06:36:49.517Z,5.00
2019-06-18T06:37:54.993Z,4.30
2019-06-18T06:39:03.694Z,4.50
2019-06-18T06:40:06.053Z,4.40
2019-06-18T06:41:13.528Z,4.40
2019-06-18T06:42:17.060Z,4.70
2019-06-18T06:43:22.676Z,4.40
2019-06-18T06:44:28.102Z,5.60
2019-06-18T06:45:33.620Z,4.20
2019-06-18T06:46:39.152Z,4.30
2019-06-18T06:47:44.646Z,4.60
2019-06-18T06:48:52.518Z,4.40
2019-06-18T06:49:55.686Z,4.60
2019-06-18T06:51:02.938Z,4.50
2019-06-18T06:52:06.717Z,4.10
2019-06-18T06:53:13.507Z,4.30
2019-06-18T06:54:17.752Z,4.20
2019-06-18T06:55:24.018Z,4.50
2019-06-18T06:56:28.793Z,4.20
2019-06-18T06:57:34.316Z,4.40
2019-06-18T06:58:39.851Z,4.30
2019-06-18T06:59:45.340Z,4.30
2019-06-18T07:00:53.213Z,4.40
2019-06-18T07:01:56.365Z,4.20
2019-06-18T07:03:02.515Z,4.20
2019-06-18T07:04:07.407Z,4.10
2019-06-18T07:05:12.929Z,4.40
2019-06-18T07:06:18.463Z,6.40
2019-06-18T07:07:24.282Z,4.20
2019-06-18T07:08:29.499Z,4.10
2019-06-18T07:09:35.013Z,4.30
2019-06-18T07:10:43.194Z,4.30
2019-06-18T07:11:46.038Z,4.30
2019-06-18T07:12:52.764Z,4.20
2019-06-18T07:13:57.061Z,4.30
2019-06-18T07:15:02.771Z,3.90
2019-06-18T07:16:08.099Z,3.90
2019-06-18T07:17:13.626Z,4.40
2019-06-18T07:18:19.265Z,4.60
2019-06-18T07:19:24.652Z,5.40
2019-06-18T07:20:32.531Z,4.00
2019-06-18T07:21:35.704Z,4.10
2019-06-18T07:22:44.152Z,4.10
2019-06-18T07:23:46.733Z,4.10
2019-06-18T07:24:52.974Z,4.30
2019-06-18T07:25:57.777Z,4.50
2019-06-18T07:27:03.283Z,5.40
2019-06-18T07:28:08.806Z,5.00
2019-06-18T07:29:14.592Z,4.00
2019-06-18T07:30:19.833Z,4.90
2019-06-18T07:31:25.358Z,4.00
2019-06-18T07:32:33.349Z,4.40
2019-06-18T07:33:36.389Z,4.30
2019-06-18T07:34:43.392Z,4.30
2019-06-18T07:35:47.425Z,4.00
2019-06-18T07:36:52.988Z,4.10
2019-06-18T07:37:58.488Z,4.40
2019-06-18T07:39:04.005Z,4.90
2019-06-18T07:40:09.511Z,6.80
2019-06-18T07:41:15.020Z,8.20
2019-06-18T07:42:23.094Z,11.10
2019-06-18T07:43:26.057Z,4.20
2019-06-18T07:44:32.800Z,5.80
2019-06-18T07:45:37.099Z,5.40
2019-06-18T07:46:43.172Z,7.30
2019-06-18T07:47:48.131Z,12.30
2019-06-18T07:48:53.648Z,6.20
2019-06-18T07:50:10.250Z,4.20
2019-06-18T07:51:04.684Z,4.40
2019-06-18T07:52:13.108Z,3.90
2019-06-18T07:53:15.725Z,3.90
2019-06-18T07:54:22.885Z,4.00
2019-06-18T07:55:26.758Z,4.10
2019-06-18T07:56:33.031Z,4.10
2019-06-18T07:57:37.798Z,4.90
2019-06-18T07:58:43.310Z,4.20
2019-06-18T07:59:48.840Z,4.50
2019-06-18T08:00:54.348Z,4.80
2019-06-18T08:01:59.877Z,5.80
2019-06-18T08:03:05.387Z,4.10
2019-06-18T08:04:13.261Z,5.70
2019-06-18T08:05:16.428Z,3.60
2019-06-18T08:06:22.382Z,3.70
2019-06-18T08:07:27.470Z,3.80
2019-06-18T08:08:33.362Z,3.80
2019-06-18T08:09:38.562Z,6.00
2019-06-18T08:10:44.084Z,3.80
2019-06-18T08:11:49.563Z,23.20
2019-06-18T08:12:55.064Z,7.20
2019-06-18T08:14:02.990Z,4.90
2019-06-18T08:15:06.099Z,4.60
2019-06-18T08:16:13.358Z,5.50
2019-06-18T08:17:17.190Z,4.30
2019-06-18T08:18:23.320Z,3.90
2019-06-18T08:19:28.854Z,6.10
2019-06-18T08:20:38.380Z,3.70
2019-06-18T08:21:39.214Z,3.60
2019-06-18T08:22:44.730Z,5.10
2019-06-18T08:23:52.482Z,5.00
2019-06-18T08:24:55.763Z,3.70
2019-06-18T08:26:02.874Z,5.00
2019-06-18T08:27:06.804Z,4.90
2019-06-18T08:28:12.600Z,5.10
2019-06-18T08:29:17.848Z,4.30
2019-06-18T08:30:31.379Z,4.00
2019-06-18T08:31:28.886Z,3.70
2019-06-18T08:32:34.398Z,4.60
2019-06-18T08:33:42.444Z,4.30
2019-06-18T08:34:45.592Z,3.50
2019-06-18T08:35:53.289Z,4.30
2019-06-18T08:36:56.511Z,3.60
2019-06-18T08:38:02.368Z,3.90
2019-06-18T08:39:07.534Z,4.80
2019-06-18T08:40:13.060Z,3.80
2019-06-18T08:41:18.565Z,3.60
2019-06-18T08:42:24.111Z,4.30
2019-06-18T08:43:29.596Z,3.40
2019-06-18T08:44:35.166Z,3.90
2019-06-18T08:45:42.820Z,3.90
2019-06-18T08:46:46.177Z,3.70
2019-06-18T08:47:53.605Z,3.40
2019-06-18T08:48:57.220Z,3.60
2019-06-18T08:50:03.147Z,4.00
2019-06-18T08:51:08.231Z,4.20
2019-06-18T08:52:13.746Z,3.40
2019-06-18T08:53:19.266Z,3.60
2019-06-18T08:54:24.792Z,3.60
2019-06-18T08:55:32.945Z,3.70
2019-06-18T08:56:35.822Z,3.50
2019-06-18T08:57:42.830Z,3.40
2019-06-18T08:58:46.876Z,3.80
2019-06-18T08:59:52.639Z,3.70
2019-06-18T09:00:57.905Z,3.50
2019-06-18T09:02:03.418Z,3.60
2019-06-18T09:03:22.150Z,3.50
2019-06-18T09:04:14.460Z,3.30
2019-06-18T09:05:20.075Z,3.50
2019-06-18T09:06:25.504Z,3.40
2019-06-18T09:07:33.191Z,3.30
2019-06-18T09:08:36.543Z,3.20
2019-06-18T09:09:42.372Z,3.80
2019-06-18T09:10:47.578Z,3.20
2019-06-18T09:11:53.091Z,3.30
2019-06-18T09:12:58.612Z,3.30
2019-06-18T09:14:04.140Z,3.50
2019-06-18T09:15:12.356Z,3.40
2019-06-18T09:16:15.186Z,3.40
2019-06-18T09:17:22.878Z,4.30
2019-06-18T09:18:26.216Z,4.00
2019-06-18T09:19:33.016Z,3.50
2019-06-18T09:20:37.248Z,3.40
2019-06-18T09:21:43.169Z,4.60
2019-06-18T09:22:48.289Z,3.50
2019-06-18T09:23:53.809Z,3.40
2019-06-18T09:24:59.327Z,3.70
2019-06-18T09:26:04.851Z,3.40
2019-06-18T09:27:13.199Z,3.30
2019-06-18T09:28:15.885Z,3.00
2019-06-18T09:29:22.813Z,3.50
2019-06-18T09:30:26.941Z,3.50
2019-06-18T09:31:33.002Z,3.40
2019-06-18T09:32:37.993Z,3.50
2019-06-18T09:33:43.482Z,3.60
2019-06-18T09:34:49.011Z,3.90
2019-06-18T09:35:54.529Z,3.70
2019-06-18T09:37:03.277Z,4.00
2019-06-18T09:38:07.391Z,3.80
2019-06-18T09:39:13.529Z,3.50
2019-06-18T09:40:16.603Z,3.40
2019-06-18T09:41:23.399Z,3.80
2019-06-18T09:42:27.686Z,4.70
2019-06-18T09:43:33.288Z,3.90
2019-06-18T09:44:38.693Z,3.90
2019-06-18T09:45:46.846Z,3.60
2019-06-18T09:46:49.725Z,3.80
2019-06-18T09:47:55.238Z,3.50
2019-06-18T09:49:02.983Z,3.60
2019-06-18T09:50:06.296Z,3.80
2019-06-18T09:51:22.935Z,3.90
2019-06-18T09:52:17.324Z,4.00
2019-06-18T09:53:23.449Z,6.00
2019-06-18T09:54:28.366Z,6.80
2019-06-18T09:55:33.889Z,5.90
2019-06-18T09:56:39.410Z,7.60
2019-06-18T09:57:44.922Z,8.60
2019-06-18T09:58:50.459Z,4.60
2019-06-18T09:59:55.976Z,5.60
2019-06-18T10:01:01.497Z,5.70
2019-06-18T10:02:07.041Z,5.80
2019-06-18T10:03:13.422Z,4.50
2019-06-18T10:04:18.045Z,3.60
2019-06-18T10:05:23.567Z,3.60
2019-06-18T10:06:29.093Z,5.00
2019-06-18T10:07:34.609Z,4.10
2019-06-18T10:08:42.576Z,4.40
2019-06-18T10:09:45.662Z,3.70
2019-06-18T10:10:52.632Z,3.70
2019-06-18T10:11:56.685Z,4.40
2019-06-18T10:13:03.487Z,3.70
2019-06-18T10:14:07.727Z,4.00
2019-06-18T10:15:14.099Z,3.60
2019-06-18T10:16:18.766Z,3.70
2019-06-18T10:17:24.287Z,3.70
2019-06-18T10:18:29.847Z,3.70
2019-06-18T10:19:35.330Z,4.00
2019-06-18T10:20:42.891Z,3.70
2019-06-18T10:21:46.361Z,5.00
2019-06-18T10:22:52.552Z,4.30
2019-06-18T10:23:57.407Z,3.50
2019-06-18T10:25:03.495Z,3.80
2019-06-18T10:26:08.452Z,3.40
2019-06-18T10:27:13.975Z,3.70
2019-06-18T10:28:19.487Z,3.40
2019-06-18T10:29:33.393Z,3.60
2019-06-18T10:30:32.671Z,3.60
2019-06-18T10:31:36.049Z,3.90
2019-06-18T10:32:42.850Z,3.30
2019-06-18T10:33:47.137Z,3.50
2019-06-18T10:34:53.184Z,3.60
2019-06-18T10:35:58.131Z,3.40
2019-06-18T10:37:04.591Z,3.40
2019-06-18T10:38:09.173Z,3.50
2019-06-18T10:39:14.692Z,5.10
2019-06-18T10:40:20.314Z,3.60
2019-06-18T10:41:25.743Z,3.40
2019-06-18T10:42:31.252Z,3.80
2019-06-18T10:43:36.785Z,3.50
2019-06-18T10:44:43.453Z,3.50
2019-06-18T10:45:47.817Z,3.50
2019-06-18T10:46:56.402Z,3.40
2019-06-18T10:47:58.860Z,3.20
2019-06-18T10:49:16.844Z,3.40
2019-06-18T10:50:12.315Z,3.60
2019-06-18T10:51:15.589Z,6.40
2019-06-18T10:52:23.417Z,3.50
2019-06-18T10:53:26.471Z,3.40
2019-06-18T10:54:32.700Z,3.60
2019-06-18T10:55:37.505Z,3.40
2019-06-18T10:56:43.266Z,3.30
2019-06-18T10:57:48.551Z,3.30
2019-06-18T10:58:54.072Z,3.70
2019-06-18T10:59:59.602Z,3.40
2019-06-18T11:01:05.118Z,3.60
2019-06-18T11:02:10.642Z,3.80
2019-06-18T11:03:16.156Z,5.70
2019-06-18T11:04:21.685Z,4.30
2019-06-18T11:05:27.212Z,3.60
2019-06-18T11:06:33.098Z,3.10
2019-06-18T11:07:38.239Z,3.30
2019-06-18T11:08:43.754Z,3.30
2019-06-18T11:09:49.283Z,5.10
2019-06-18T11:10:54.811Z,3.20
2019-06-18T11:12:02.665Z,3.30
2019-06-18T11:13:05.854Z,3.00
2019-06-18T11:14:15.470Z,3.30
2019-06-18T11:15:16.891Z,3.30
2019-06-18T11:16:22.995Z,3.20
2019-06-18T11:17:27.931Z,3.40
2019-06-18T11:18:36.343Z,3.60
2019-06-18T11:19:38.980Z,3.30
2019-06-18T11:20:44.500Z,3.50
2019-06-18T11:21:50.025Z,3.70
2019-06-18T11:22:55.549Z,3.30
2019-06-18T11:24:03.549Z,3.30
2019-06-18T11:25:06.582Z,3.30
2019-06-18T11:26:13.682Z,3.30
2019-06-18T11:27:17.628Z,4.50
2019-06-18T11:28:23.186Z,3.50
2019-06-18T11:29:28.664Z,3.90
2019-06-18T11:30:34.199Z,3.50
2019-06-18T11:31:39.720Z,3.70
2019-06-18T11:32:45.233Z,3.40
2019-06-18T11:33:53.473Z,3.70
2019-06-18T11:34:56.271Z,3.60
2019-06-18T11:36:03.924Z,3.70
2019-06-18T11:37:07.325Z,3.80
2019-06-18T11:38:12.859Z,3.40
2019-06-18T11:39:18.360Z,3.30
2019-06-18T11:40:23.888Z,3.60
2019-06-18T11:41:29.403Z,3.80
2019-06-18T11:42:34.934Z,3.50
2019-06-18T11:43:42.736Z,3.60
2019-06-18T11:44:45.990Z,3.60
2019-06-18T11:45:53.423Z,3.50
2019-06-18T11:46:57.017Z,4.80
2019-06-18T11:48:02.861Z,4.50
2019-06-18T11:49:08.050Z,4.00
2019-06-18T11:50:13.573Z,3.40
2019-06-18T11:51:19.116Z,3.50
2019-06-18T11:52:32.170Z,3.30
2019-06-18T11:53:30.141Z,3.60
2019-06-18T11:54:35.679Z,3.40
2019-06-18T11:55:42.898Z,3.50
2019-06-18T11:56:46.702Z,3.50
2019-06-18T11:57:53.276Z,3.70
2019-06-18T11:58:57.746Z,3.40
2019-06-18T12:00:04.724Z,4.30
2019-06-18T12:01:08.798Z,3.70
2019-06-18T12:02:14.306Z,3.70
2019-06-18T12:03:22.642Z,3.30
2019-06-18T12:04:25.368Z,3.40
2019-06-18T12:05:32.982Z,3.30
2019-06-18T12:06:36.402Z,3.50
2019-06-18T12:07:43.612Z,3.30
2019-06-18T12:08:47.440Z,3.70
2019-06-18T12:09:52.965Z,3.50
2019-06-18T12:11:02.349Z,3.50
2019-06-18T12:12:03.997Z,3.40
2019-06-18T12:13:09.540Z,3.40
2019-06-18T12:14:15.051Z,9.90
2019-06-18T12:15:23.702Z,12.00
2019-06-18T12:16:26.093Z,3.70
2019-06-18T12:17:33.294Z,3.10
2019-06-18T12:18:37.132Z,3.40
2019-06-18T12:19:42.709Z,3.90
2019-06-18T12:20:48.177Z,3.40
2019-06-18T12:21:53.915Z,4.50
2019-06-18T12:22:59.238Z,3.30
2019-06-18T12:24:04.739Z,3.40
2019-06-18T12:25:13.152Z,3.40
2019-06-18T12:26:15.803Z,3.50
2019-06-18T12:27:23.157Z,4.00
2019-06-18T12:28:26.827Z,4.60
2019-06-18T12:29:33.526Z,3.30
2019-06-18T12:30:37.874Z,3.10
2019-06-18T12:31:43.468Z,3.60
2019-06-18T12:32:54.387Z,3.60
2019-06-18T12:33:54.426Z,3.60
2019-06-18T12:35:02.797Z,3.20
2019-06-18T12:36:05.478Z,3.40
2019-06-18T12:37:11.004Z,3.30
2019-06-18T12:38:16.583Z,3.40
2019-06-18T12:39:22.046Z,3.40
2019-06-18T12:40:27.563Z,3.50
2019-06-18T12:41:33.342Z,3.70
2019-06-18T12:42:38.599Z,3.60
2019-06-18T12:43:44.136Z,3.50
2019-06-18T12:44:49.645Z,4.60
2019-06-18T12:45:55.176Z,4.30
2019-06-18T12:47:00.726Z,3.60
2019-06-18T12:48:06.209Z,3.60
2019-06-18T12:49:12.106Z,3.40
2019-06-18T12:50:17.270Z,3.50
2019-06-18T12:51:23.076Z,4.00
2019-06-18T12:52:28.295Z,3.40
2019-06-18T12:53:33.818Z,3.80
2019-06-18T12:54:39.357Z,3.50
2019-06-18T12:55:44.870Z,3.70
2019-06-18T12:56:52.624Z,3.60
2019-06-18T12:57:55.906Z,3.50
2019-06-18T12:59:20.609Z,3.90
2019-06-18T13:00:06.950Z,3.60
2019-06-18T13:01:12.664Z,3.80
2019-06-18T13:02:18.014Z,4.10
2019-06-18T13:03:23.529Z,3.60
2019-06-18T13:04:29.034Z,3.60
2019-06-18T13:05:34.574Z,3.60
2019-06-18T13:06:40.082Z,3.60
2019-06-18T13:07:45.614Z,3.70
2019-06-18T13:08:52.878Z,4.10
2019-06-18T13:09:56.639Z,3.40
2019-06-18T13:11:03.679Z,3.40
2019-06-18T13:12:07.693Z,3.60
2019-06-18T13:13:13.866Z,3.70
2019-06-18T13:14:18.728Z,4.00
2019-06-18T13:15:24.251Z,4.10
2019-06-18T13:16:29.773Z,3.60
2019-06-18T13:17:35.285Z,3.60
2019-06-18T13:18:45.095Z,3.30
2019-06-18T13:19:46.347Z,3.80
2019-06-18T13:20:52.865Z,3.50
2019-06-18T13:21:57.388Z,3.30
2019-06-18T13:23:16.809Z,3.40
2019-06-18T13:24:08.415Z,4.00
2019-06-18T13:25:13.944Z,4.00
2019-06-18T13:26:19.457Z,3.50
2019-06-18T13:27:24.983Z,3.40
2019-06-18T13:28:32.590Z,3.50
2019-06-18T13:29:36.027Z,5.00
2019-06-18T13:30:43.271Z,3.40
2019-06-18T13:31:47.071Z,3.50
2019-06-18T13:32:53.889Z,3.20
2019-06-18T13:33:58.111Z,3.70
2019-06-18T13:35:03.658Z,3.50
2019-06-18T13:36:09.165Z,3.90
2019-06-18T13:37:14.676Z,3.20
2019-06-18T13:38:20.195Z,3.30
2019-06-18T13:39:25.717Z,3.40
2019-06-18T13:40:33.112Z,3.20
2019-06-18T13:41:36.759Z,3.70
2019-06-18T13:42:42.293Z,3.90
2019-06-18T13:43:47.813Z,3.50
2019-06-18T13:44:54.104Z,4.00
2019-06-18T13:45:58.854Z,3.40
2019-06-18T13:47:04.392Z,3.60
2019-06-18T13:48:12.998Z,4.10
2019-06-18T13:49:15.411Z,5.40
2019-06-18T13:50:23.247Z,3.60
2019-06-18T13:51:26.458Z,3.70
2019-06-18T13:52:33.120Z,3.60
2019-06-18T13:53:45.488Z,4.00
2019-06-18T13:54:43.321Z,3.70
2019-06-18T13:55:48.567Z,3.50
2019-06-18T13:56:54.069Z,3.50
2019-06-18T13:58:02.481Z,3.50
2019-06-18T13:59:05.175Z,3.40
2019-06-18T14:00:13.832Z,3.70
2019-06-18T14:01:16.174Z,3.40
2019-06-18T14:02:22.921Z,3.70
2019-06-18T14:03:27.202Z,4.00
2019-06-18T14:04:33.830Z,3.40
2019-06-18T14:05:38.250Z,3.60
2019-06-18T14:06:43.766Z,3.60
2019-06-18T14:07:49.287Z,3.40
2019-06-18T14:08:54.810Z,3.40
2019-06-18T14:10:03.317Z,3.80
2019-06-18T14:11:05.848Z,3.60
2019-06-18T14:12:13.446Z,3.30
2019-06-18T14:13:16.897Z,3.50
2019-06-18T14:14:22.702Z,3.30
2019-06-18T14:15:27.949Z,3.40
2019-06-18T14:16:33.470Z,3.30
2019-06-18T14:17:38.983Z,3.60
2019-06-18T14:18:44.510Z,3.20
2019-06-18T14:19:50.023Z,3.00
2019-06-18T14:20:55.554Z,2.90
2019-06-18T14:22:04.036Z,3.00
2019-06-18T14:23:06.603Z,3.20
2019-06-18T14:24:13.051Z,3.20
2019-06-18T14:25:17.647Z,3.10
2019-06-18T14:26:23.153Z,3.20
2019-06-18T14:27:28.671Z,2.70